Time;durP1;ratioP1;P1;durP2;ratioP2;P2;SDS_P1;SDS_P2;PMS_P1;PMS_P2;Temp;Humidity;BMP_temperature;BMP_pressure;BME280_temperature;BME280_humidity;BME280_pressure;Samples;Min_cycle;Max_cycle;Signal;HPM_P1;HPM_P2
2023/07/23 00:00:35;;;;;;;10.95;7.07;;;14.70;99.90;;;;;;4990033;28;20041;-63
2023/07/23 00:03:01;;;;;;;11.13;7.05;;;14.70;99.90;;;;;;5028362;28;20162;-63
2023/07/23 00:05:27;;;;;;;13.73;7.47;;;14.70;99.90;;;;;;4998286;28;20057;-63
2023/07/23 00:07:57;;;;;;;13.48;7.15;;;14.70;99.90;;;;;;4980242;28;20089;-63
2023/07/23 00:10:23;;;;;;;12.57;7.20;;;14.70;99.90;;;;;;4971129;28;20061;-63
2023/07/23 00:12:49;;;;;;;12.00;7.25;;;14.70;99.90;;;;;;4989394;28;20405;-63
2023/07/23 00:15:15;;;;;;;13.10;6.95;;;14.70;99.90;;;;;;4988533;28;20034;-63
2023/07/23 00:17:41;;;;;;;10.38;7.10;;;14.70;99.90;;;;;;4986197;28;20038;-63
2023/07/23 00:20:08;;;;;;;11.90;7.15;;;14.80;99.90;;;;;;4991377;28;20057;-64
2023/07/23 00:22:34;;;;;;;11.70;7.18;;;14.70;99.90;;;;;;4971734;28;20042;-63
2023/07/23 00:25:00;;;;;;;10.63;6.70;;;14.80;99.90;;;;;;4989364;28;20038;-62
2023/07/23 00:27:25;;;;;;;14.70;7.47;;;14.70;99.90;;;;;;4994078;28;20483;-62
2023/07/23 00:29:51;;;;;;;12.30;6.60;;;14.80;99.90;;;;;;5001232;28;20516;-64
2023/07/23 00:32:17;;;;;;;12.25;7.45;;;14.80;99.90;;;;;;4966100;28;20057;-64
2023/07/23 00:34:42;;;;;;;13.00;7.28;;;14.80;99.90;;;;;;4987659;28;20034;-63
2023/07/23 00:37:09;;;;;;;13.13;7.15;;;14.80;99.90;;;;;;4971487;28;21705;-63
2023/07/23 00:39:34;;;;;;;10.20;6.65;;;14.70;99.90;;;;;;4988132;28;20041;-63
2023/07/23 00:42:00;;;;;;;11.10;6.68;;;14.80;99.90;;;;;;4988634;28;20485;-62
2023/07/23 00:44:26;;;;;;;10.27;7.18;;;14.70;99.90;;;;;;4974331;28;20047;-63
2023/07/23 00:46:53;;;;;;;10.30;6.68;;;14.70;99.90;;;;;;4973871;28;20083;-61
2023/07/23 00:49:19;;;;;;;15.02;7.45;;;14.70;99.90;;;;;;4972943;28;20555;-64
2023/07/23 00:51:46;;;;;;;13.40;7.95;;;14.70;99.90;;;;;;4967597;28;20408;-63
2023/07/23 00:54:13;;;;;;;12.35;7.35;;;14.70;99.90;;;;;;4981144;28;20036;-64
2023/07/23 00:56:41;;;;;;;13.45;7.90;;;14.70;99.90;;;;;;4986674;28;20393;-64
2023/07/23 00:59:07;;;;;;;12.32;7.93;;;14.70;99.90;;;;;;4982081;28;20077;-63
2023/07/23 01:01:33;;;;;;;12.02;7.03;;;14.70;99.90;;;;;;4990055;28;20141;-64
2023/07/23 01:03:58;;;;;;;13.30;7.78;;;14.70;99.90;;;;;;4987343;28;20132;-62
2023/07/23 01:06:26;;;;;;;12.55;7.70;;;14.70;99.90;;;;;;4989750;28;20077;-64
2023/07/23 01:08:55;;;;;;;12.50;7.97;;;14.70;99.90;;;;;;4975148;28;20038;-64
2023/07/23 01:11:22;;;;;;;14.23;8.00;;;14.70;99.90;;;;;;4974446;28;20043;-64
2023/07/23 01:13:51;;;;;;;13.75;7.45;;;14.70;99.90;;;;;;4974008;28;20046;-64
2023/07/23 01:16:17;;;;;;;13.98;7.47;;;14.60;99.90;;;;;;4971135;28;20115;-64
2023/07/23 01:18:44;;;;;;;15.90;7.85;;;14.60;99.90;;;;;;4975150;28;20043;-64
2023/07/23 01:21:10;;;;;;;13.98;7.68;;;14.60;99.90;;;;;;5011860;28;20063;-63
2023/07/23 01:23:36;;;;;;;13.13;7.40;;;14.60;99.90;;;;;;4978380;28;20045;-63
2023/07/23 01:26:03;;;;;;;13.02;7.55;;;14.60;99.90;;;;;;5021861;28;20057;-64
2023/07/23 01:28:29;;;;;;;12.80;6.78;;;14.60;99.90;;;;;;4991417;28;20378;-64
2023/07/23 01:30:55;;;;;;;12.48;7.47;;;14.60;99.90;;;;;;4973966;28;20100;-64
2023/07/23 01:33:22;;;;;;;11.82;7.40;;;14.60;99.90;;;;;;4975608;28;20043;-64
2023/07/23 01:35:51;;;;;;;14.63;7.82;;;14.60;99.90;;;;;;4970029;28;20035;-63
2023/07/23 01:38:17;;;;;;;13.27;7.43;;;14.70;99.90;;;;;;4974776;28;20061;-63
2023/07/23 01:40:44;;;;;;;12.73;7.45;;;14.60;99.90;;;;;;4979513;28;20038;-63
2023/07/23 01:43:09;;;;;;;12.38;7.10;;;14.70;99.90;;;;;;4989536;28;20038;-64
2023/07/23 01:45:35;;;;;;;11.48;7.20;;;14.70;99.90;;;;;;5029061;28;20035;-62
2023/07/23 01:48:01;;;;;;;13.00;7.75;;;14.70;99.90;;;;;;4973172;28;20042;-64
2023/07/23 01:50:26;;;;;;;15.30;8.00;;;14.70;99.90;;;;;;4977766;28;20482;-64
2023/07/23 01:52:52;;;;;;;13.98;7.90;;;14.70;99.90;;;;;;4984370;28;20085;-64
2023/07/23 01:55:18;;;;;;;13.40;7.80;;;14.70;99.90;;;;;;4977804;28;20049;-64
2023/07/23 01:57:44;;;;;;;16.02;8.13;;;14.80;99.90;;;;;;4978213;28;20042;-64
2023/07/23 02:00:10;;;;;;;15.32;7.90;;;14.70;99.90;;;;;;4986420;28;20076;-64
2023/07/23 02:02:36;;;;;;;12.43;7.35;;;14.70;99.90;;;;;;4994396;28;20061;-64
2023/07/23 02:05:03;;;;;;;13.25;7.68;;;14.70;99.90;;;;;;4986211;28;20066;-64
2023/07/23 02:07:28;;;;;;;11.20;7.65;;;14.80;99.90;;;;;;5003055;28;20088;-64
2023/07/23 02:09:54;;;;;;;14.57;8.10;;;14.80;99.90;;;;;;4984891;28;20034;-64
2023/07/23 02:12:19;;;;;;;13.95;8.07;;;14.70;99.90;;;;;;4982256;28;20034;-63
2023/07/23 02:14:45;;;;;;;14.88;8.73;;;14.70;99.90;;;;;;4982085;28;20056;-63
2023/07/23 02:17:11;;;;;;;12.30;8.27;;;14.70;99.90;;;;;;5007528;28;20061;-63
2023/07/23 02:19:37;;;;;;;13.48;7.88;;;14.80;99.90;;;;;;5016922;28;20038;-62
2023/07/23 02:22:05;;;;;;;13.60;8.80;;;14.80;99.90;;;;;;5036733;28;20138;-62
2023/07/23 02:24:30;;;;;;;13.00;8.48;;;14.80;99.90;;;;;;5032263;28;20526;-64
2023/07/23 02:26:56;;;;;;;13.80;8.73;;;14.80;99.90;;;;;;5042556;28;20123;-64
2023/07/23 02:29:22;;;;;;;14.80;8.52;;;14.80;99.90;;;;;;4993081;28;20405;-64
2023/07/23 02:31:48;;;;;;;15.40;8.30;;;14.80;99.90;;;;;;4995947;28;20049;-63
2023/07/23 02:34:14;;;;;;;12.95;8.50;;;14.80;99.90;;;;;;5032605;28;20047;-63
2023/07/23 02:36:40;;;;;;;13.45;8.27;;;14.80;99.90;;;;;;5010368;28;20052;-63
2023/07/23 02:39:05;;;;;;;13.00;8.05;;;14.80;99.90;;;;;;5028530;28;20035;-63
2023/07/23 02:41:31;;;;;;;13.38;8.43;;;14.80;99.90;;;;;;4996300;28;20039;-63
2023/07/23 02:43:57;;;;;;;14.40;9.13;;;14.80;99.90;;;;;;5011312;28;20530;-63
2023/07/23 02:46:23;;;;;;;14.05;8.27;;;14.80;99.90;;;;;;4998275;28;20040;-64
2023/07/23 02:48:48;;;;;;;12.57;7.50;;;14.90;99.90;;;;;;5000921;28;20035;-63
2023/07/23 02:51:14;;;;;;;15.95;9.07;;;14.80;99.90;;;;;;4974867;28;20096;-63
2023/07/23 02:53:40;;;;;;;13.75;7.50;;;14.80;99.90;;;;;;4994627;28;20366;-63
2023/07/23 02:56:05;;;;;;;16.88;8.35;;;14.80;99.90;;;;;;4983469;28;20032;-63
2023/07/23 02:58:31;;;;;;;14.48;8.60;;;14.80;99.90;;;;;;4960974;28;20046;-63
2023/07/23 03:00:57;;;;;;;14.55;7.90;;;14.80;99.90;;;;;;4980710;28;20129;-63
2023/07/23 03:03:23;;;;;;;15.82;8.75;;;14.70;99.90;;;;;;4958871;28;20087;-63
2023/07/23 03:05:49;;;;;;;14.15;8.55;;;14.80;99.90;;;;;;4985507;28;20073;-63
2023/07/23 03:08:14;;;;;;;13.90;8.27;;;14.80;99.90;;;;;;4971944;28;20054;-63
2023/07/23 03:10:41;;;;;;;13.30;8.75;;;14.80;99.90;;;;;;4972932;28;20492;-63
2023/07/23 03:13:07;;;;;;;17.77;8.73;;;14.80;99.90;;;;;;4969642;28;20038;-64
2023/07/23 03:15:34;;;;;;;14.77;8.82;;;14.80;99.90;;;;;;4981965;28;20056;-63
2023/07/23 03:18:00;;;;;;;16.63;9.02;;;14.80;99.90;;;;;;4973455;28;20035;-63
2023/07/23 03:20:26;;;;;;;15.20;8.48;;;14.80;99.90;;;;;;4986404;28;20046;-64
2023/07/23 03:22:52;;;;;;;13.90;8.80;;;14.80;99.90;;;;;;4985383;28;20511;-63
2023/07/23 03:25:17;;;;;;;13.20;9.15;;;14.80;99.90;;;;;;4986873;28;20054;-61
2023/07/23 03:27:43;;;;;;;13.85;8.80;;;14.80;99.90;;;;;;4978519;28;20043;-61
2023/07/23 03:30:09;;;;;;;12.90;8.75;;;14.70;99.90;;;;;;4992309;28;20030;-61
2023/07/23 03:32:35;;;;;;;19.40;9.60;;;14.80;99.90;;;;;;4979687;28;20039;-61
2023/07/23 03:35:01;;;;;;;13.57;8.80;;;14.80;99.90;;;;;;4990350;28;20030;-60
2023/07/23 03:37:27;;;;;;;13.00;8.27;;;14.80;99.90;;;;;;4973418;28;20041;-60
2023/07/23 03:39:52;;;;;;;17.88;8.90;;;14.80;99.90;;;;;;4977853;28;20046;-61
2023/07/23 03:42:18;;;;;;;13.23;8.73;;;14.80;99.90;;;;;;4988680;28;20050;-60
2023/07/23 03:44:44;;;;;;;15.18;9.32;;;14.80;99.90;;;;;;4999210;28;20092;-61
2023/07/23 03:47:18;;;;;;;13.30;8.70;;;14.80;99.90;;;;;;4981998;28;20039;-61
2023/07/23 03:49:45;;;;;;;16.48;9.10;;;14.80;99.90;;;;;;4976823;28;20117;-61
2023/07/23 03:52:11;;;;;;;14.50;9.15;;;14.80;99.90;;;;;;4979208;28;20500;-61
2023/07/23 03:54:37;;;;;;;19.85;9.57;;;14.80;99.90;;;;;;4988920;28;20043;-61
2023/07/23 03:57:03;;;;;;;12.90;8.73;;;14.80;99.90;;;;;;5014730;28;20456;-61
2023/07/23 03:59:30;;;;;;;15.52;9.45;;;14.80;99.90;;;;;;4984683;28;20062;-62
2023/07/23 04:01:56;;;;;;;13.73;9.80;;;14.80;99.90;;;;;;4999740;28;20040;-61
2023/07/23 04:04:23;;;;;;;14.07;9.32;;;14.80;99.90;;;;;;4986846;28;20512;-61
2023/07/23 04:06:49;;;;;;;13.88;9.50;;;14.80;99.90;;;;;;4987717;28;20035;-61
2023/07/23 04:09:14;;;;;;;16.00;9.15;;;14.90;99.90;;;;;;4972020;28;20122;-61
2023/07/23 04:11:40;;;;;;;14.02;9.73;;;14.80;99.90;;;;;;4971403;28;20039;-61
2023/07/23 04:14:06;;;;;;;15.73;9.32;;;14.90;99.90;;;;;;4989134;28;20035;-62
2023/07/23 04:16:32;;;;;;;16.30;9.60;;;14.90;99.90;;;;;;4971761;28;20536;-61
2023/07/23 04:18:58;;;;;;;14.93;9.57;;;14.90;99.90;;;;;;4978759;28;20062;-59
2023/07/23 04:21:23;;;;;;;17.98;10.70;;;14.90;99.90;;;;;;4981387;28;20084;-62
2023/07/23 04:23:51;;;;;;;16.63;9.45;;;14.90;99.90;;;;;;5003131;28;20182;-62
2023/07/23 04:26:18;;;;;;;19.52;10.70;;;14.90;99.90;;;;;;4991174;28;20068;-59
2023/07/23 04:28:44;;;;;;;17.13;10.55;;;14.90;99.90;;;;;;4978442;28;20496;-60
2023/07/23 04:31:10;;;;;;;17.33;10.80;;;14.90;99.90;;;;;;4969527;28;20090;-63
2023/07/23 04:33:36;;;;;;;17.33;10.55;;;14.90;99.90;;;;;;4985869;28;20066;-62
2023/07/23 04:36:03;;;;;;;15.43;10.68;;;14.90;99.90;;;;;;5014657;28;20056;-59
2023/07/23 04:38:29;;;;;;;13.93;10.57;;;14.90;99.90;;;;;;4997355;28;20123;-61
2023/07/23 04:40:55;;;;;;;18.60;11.68;;;14.90;99.90;;;;;;4989120;28;20065;-61
2023/07/23 04:43:20;;;;;;;16.42;9.85;;;14.90;99.90;;;;;;5020283;28;20038;-63
2023/07/23 04:45:46;;;;;;;22.23;10.18;;;14.90;99.90;;;;;;4993902;28;20038;-60
2023/07/23 04:48:13;;;;;;;17.42;10.32;;;14.90;99.90;;;;;;4988427;28;20045;-59
2023/07/23 04:50:39;;;;;;;14.05;10.75;;;14.90;99.90;;;;;;5002988;28;20042;-60
2023/07/23 04:53:05;;;;;;;15.73;10.88;;;14.90;99.90;;;;;;5021109;28;20040;-60
2023/07/23 04:55:32;;;;;;;15.55;10.25;;;14.90;99.90;;;;;;4989596;28;20036;-61
2023/07/23 04:57:57;;;;;;;17.90;10.60;;;14.90;99.90;;;;;;4985387;28;20081;-61
2023/07/23 05:00:23;;;;;;;13.63;10.15;;;14.90;99.90;;;;;;4992020;28;20078;-63
2023/07/23 05:02:49;;;;;;;16.20;10.50;;;14.90;99.90;;;;;;4976745;28;20049;-60
2023/07/23 05:05:14;;;;;;;17.65;10.38;;;14.90;99.90;;;;;;4998390;28;20044;-60
2023/07/23 05:07:40;;;;;;;14.82;10.68;;;14.90;99.90;;;;;;4989058;28;20042;-60
2023/07/23 05:10:06;;;;;;;16.38;10.27;;;14.90;99.90;;;;;;4978795;28;20074;-61
2023/07/23 05:12:32;;;;;;;16.67;10.43;;;15.00;99.90;;;;;;4958478;28;20058;-61
2023/07/23 05:15:12;;;;;;;15.45;10.50;;;15.00;99.90;;;;;;5018510;28;20027;-64
2023/07/23 05:17:39;;;;;;;14.82;9.95;;;15.00;99.90;;;;;;4996583;28;20074;-60
2023/07/23 05:20:06;;;;;;;15.80;10.43;;;15.00;99.90;;;;;;5007316;28;20031;-59
2023/07/23 05:22:39;;;;;;;16.70;10.85;;;15.10;99.90;;;;;;4994544;28;21790;-63
2023/07/23 05:25:05;;;;;;;14.35;9.80;;;15.10;99.90;;;;;;5007385;28;20488;-60
2023/07/23 05:27:31;;;;;;;14.38;10.43;;;15.10;99.90;;;;;;5020482;28;20049;-59
2023/07/23 05:29:57;;;;;;;14.02;10.15;;;15.10;99.90;;;;;;5006192;28;20500;-59
2023/07/23 05:32:24;;;;;;;16.75;10.57;;;15.10;99.90;;;;;;5026939;28;20076;-61
2023/07/23 05:34:49;;;;;;;15.48;10.38;;;15.20;99.90;;;;;;4996224;28;20038;-59
2023/07/23 05:37:15;;;;;;;14.48;10.43;;;15.10;99.90;;;;;;4982137;28;20073;-60
2023/07/23 05:39:41;;;;;;;15.85;10.88;;;15.20;99.90;;;;;;4986306;28;20045;-59
2023/07/23 05:42:06;;;;;;;17.42;10.65;;;15.20;99.90;;;;;;4984498;28;20038;-60
2023/07/23 05:44:32;;;;;;;13.95;10.60;;;15.20;99.90;;;;;;4985443;28;20044;-60
2023/07/23 05:46:58;;;;;;;15.68;10.70;;;15.20;99.90;;;;;;5005785;28;20035;-64
2023/07/23 05:49:25;;;;;;;14.23;10.07;;;15.30;99.90;;;;;;5022592;28;20519;-59
2023/07/23 05:51:53;;;;;;;13.52;10.27;;;15.30;99.90;;;;;;5002575;28;20516;-63
2023/07/23 05:54:19;;;;;;;15.52;9.70;;;15.40;99.90;;;;;;4982059;28;20075;-60
2023/07/23 05:56:44;;;;;;;15.82;10.07;;;15.40;99.90;;;;;;5014425;28;20412;-59
2023/07/23 05:59:10;;;;;;;15.90;10.18;;;15.40;99.90;;;;;;4956800;28;20748;-60
2023/07/23 06:01:36;;;;;;;16.25;10.35;;;15.40;99.90;;;;;;4977948;28;20072;-59
2023/07/23 06:04:02;;;;;;;14.73;11.50;;;15.40;99.90;;;;;;4981944;28;20114;-60
2023/07/23 06:06:28;;;;;;;15.35;10.48;;;15.50;99.90;;;;;;4981228;28;20188;-60
2023/07/23 06:08:56;;;;;;;18.63;10.07;;;15.50;99.90;;;;;;4982218;28;20104;-60
2023/07/23 06:11:22;;;;;;;17.92;10.65;;;15.50;99.90;;;;;;4981965;28;20088;-60
2023/07/23 06:13:48;;;;;;;16.95;10.57;;;15.50;99.90;;;;;;5006089;28;20038;-60
2023/07/23 06:16:14;;;;;;;15.77;9.45;;;15.50;99.90;;;;;;4989855;28;20168;-61
2023/07/23 06:18:39;;;;;;;19.80;10.50;;;15.60;99.90;;;;;;4990388;28;20125;-60
2023/07/23 06:21:06;;;;;;;13.68;10.07;;;15.60;99.90;;;;;;5021553;28;20468;-60
2023/07/23 06:23:34;;;;;;;15.20;10.60;;;15.60;99.90;;;;;;4988501;28;20081;-60
2023/07/23 06:26:00;;;;;;;13.68;9.75;;;15.60;99.90;;;;;;5020226;28;20843;-63
2023/07/23 06:28:25;;;;;;;17.25;11.13;;;15.70;99.90;;;;;;4974339;28;20047;-63
2023/07/23 06:30:55;;;;;;;14.50;10.40;;;15.70;99.90;;;;;;5007714;28;20031;-60
2023/07/23 06:33:21;;;;;;;17.00;10.35;;;15.70;99.90;;;;;;5025261;28;20118;-60
2023/07/23 06:35:47;;;;;;;15.43;10.20;;;15.80;99.90;;;;;;5014668;28;20513;-60
2023/07/23 06:38:14;;;;;;;15.43;9.43;;;15.80;99.90;;;;;;5015378;28;20038;-60
2023/07/23 06:40:51;;;;;;;16.00;10.02;;;15.80;99.90;;;;;;4980504;28;20483;-62
2023/07/23 06:43:17;;;;;;;14.48;9.98;;;15.80;99.90;;;;;;4984448;28;20119;-60
2023/07/23 06:45:44;;;;;;;17.35;10.30;;;15.80;99.90;;;;;;4982851;28;20042;-60
2023/07/23 06:48:11;;;;;;;15.63;9.70;;;15.80;99.90;;;;;;4981799;28;20467;-59
2023/07/23 06:50:37;;;;;;;17.55;9.88;;;15.80;99.90;;;;;;4975006;28;20495;-60
2023/07/23 06:53:03;;;;;;;18.25;10.85;;;15.80;99.90;;;;;;4981559;28;20095;-60
2023/07/23 06:55:28;;;;;;;17.33;10.48;;;15.80;99.90;;;;;;4980866;28;20031;-61
2023/07/23 06:57:54;;;;;;;18.00;10.55;;;15.80;99.90;;;;;;4987420;28;20037;-61
2023/07/23 07:00:20;;;;;;;14.38;9.48;;;15.80;99.90;;;;;;5001753;28;20619;-59
2023/07/23 07:02:45;;;;;;;15.88;9.48;;;15.90;99.90;;;;;;4980544;28;20118;-60
2023/07/23 07:05:11;;;;;;;16.60;9.68;;;15.80;99.90;;;;;;4979196;28;20395;-60
2023/07/23 07:07:38;;;;;;;21.02;10.38;;;15.80;99.90;;;;;;4980773;28;20515;-60
2023/07/23 07:10:05;;;;;;;18.65;10.30;;;15.80;99.90;;;;;;4987607;28;20030;-60
2023/07/23 07:12:30;;;;;;;18.83;10.13;;;15.80;99.90;;;;;;4982875;28;20046;-61
2023/07/23 07:14:56;;;;;;;16.13;10.15;;;15.80;99.90;;;;;;4980413;28;20066;-60
2023/07/23 07:17:22;;;;;;;18.27;9.88;;;15.80;99.90;;;;;;4966149;28;20423;-60
2023/07/23 07:19:47;;;;;;;15.80;9.35;;;15.80;99.90;;;;;;4990933;28;20034;-61
2023/07/23 07:22:13;;;;;;;15.75;9.85;;;15.80;99.90;;;;;;4980664;28;20078;-63
2023/07/23 07:24:39;;;;;;;15.95;8.68;;;15.80;99.90;;;;;;4981137;28;20034;-62
2023/07/23 07:27:15;;;;;;;16.58;9.57;;;15.80;99.90;;;;;;4970460;28;20046;-61
2023/07/23 07:29:43;;;;;;;14.68;9.23;;;15.80;99.90;;;;;;4983272;28;20053;-61
2023/07/23 07:32:09;;;;;;;17.67;9.45;;;15.80;99.90;;;;;;4994308;28;20046;-60
2023/07/23 07:34:35;;;;;;;14.13;9.48;;;15.90;99.90;;;;;;5025141;28;20038;-60
2023/07/23 07:37:00;;;;;;;15.90;9.48;;;15.80;99.90;;;;;;5006075;28;20049;-61
2023/07/23 07:39:26;;;;;;;13.07;8.77;;;15.80;99.90;;;;;;4990024;28;20046;-60
2023/07/23 07:41:53;;;;;;;12.32;9.15;;;15.80;99.90;;;;;;5014292;28;20366;-61
2023/07/23 07:44:20;;;;;;;15.60;9.27;;;15.80;99.90;;;;;;5018565;28;20477;-61
2023/07/23 07:46:45;;;;;;;16.85;9.07;;;15.70;99.90;;;;;;4975702;28;20077;-60
2023/07/23 07:49:11;;;;;;;16.83;9.20;;;15.70;99.90;;;;;;4990030;28;20715;-62
2023/07/23 07:51:38;;;;;;;14.93;9.27;;;15.70;99.90;;;;;;4998857;28;20031;-61
2023/07/23 07:54:04;;;;;;;17.08;9.90;;;15.70;99.90;;;;;;4993510;28;20039;-61
2023/07/23 07:56:30;;;;;;;14.20;8.73;;;15.70;99.90;;;;;;4968764;28;20091;-63
2023/07/23 07:58:56;;;;;;;14.73;8.90;;;15.60;99.90;;;;;;4994517;28;20524;-60
2023/07/23 08:01:22;;;;;;;13.20;8.38;;;15.70;99.90;;;;;;4990316;28;20031;-60
2023/07/23 08:03:48;;;;;;;12.43;8.73;;;15.70;99.90;;;;;;5003585;28;20030;-60
2023/07/23 08:06:14;;;;;;;15.63;9.18;;;15.70;99.90;;;;;;4983370;28;20099;-60
2023/07/23 08:08:40;;;;;;;15.02;8.43;;;15.70;99.90;;;;;;4978141;28;20027;-60
2023/07/23 08:11:07;;;;;;;15.32;9.00;;;15.70;99.90;;;;;;4987239;28;20031;-63
2023/07/23 08:13:36;;;;;;;13.73;9.30;;;15.80;99.90;;;;;;4966923;28;20043;-60
2023/07/23 08:16:02;;;;;;;12.98;8.93;;;15.80;99.90;;;;;;4978816;28;20054;-61
2023/07/23 08:18:28;;;;;;;16.25;9.10;;;15.80;99.90;;;;;;4979592;28;20030;-61
2023/07/23 08:20:57;;;;;;;14.52;8.45;;;15.80;99.90;;;;;;4978753;28;20382;-60
2023/07/23 08:23:25;;;;;;;14.82;8.63;;;15.90;99.90;;;;;;4963458;28;20050;-60
2023/07/23 08:25:55;;;;;;;14.80;8.55;;;15.90;99.90;;;;;;4967690;28;20046;-63
2023/07/23 08:28:25;;;;;;;13.80;7.97;;;15.90;99.90;;;;;;4976503;28;20038;-63
2023/07/23 08:30:51;;;;;;;12.52;8.20;;;15.90;99.90;;;;;;4971799;28;20065;-60
2023/07/23 08:33:24;;;;;;;12.07;7.93;;;15.90;99.90;;;;;;4954480;28;20043;-61
2023/07/23 08:35:50;;;;;;;14.40;8.00;;;15.90;99.90;;;;;;4981263;28;20041;-62
2023/07/23 08:38:16;;;;;;;11.30;8.02;;;15.90;99.90;;;;;;4978201;28;20038;-60
2023/07/23 08:40:44;;;;;;;13.68;8.15;;;15.90;99.90;;;;;;4984738;28;20041;-60
2023/07/23 08:43:12;;;;;;;11.85;7.85;;;15.90;99.90;;;;;;5000143;28;20039;-62
2023/07/23 08:46:15;;;;;;;12.90;8.57;;;15.80;99.90;;;;;;4986095;28;20043;-60
2023/07/23 08:48:58;;;;;;;12.85;8.00;;;15.80;99.90;;;;;;4975167;28;20053;-60
2023/07/23 08:51:39;;;;;;;14.85;7.97;;;15.80;99.90;;;;;;4983543;28;20401;-60
2023/07/23 08:54:06;;;;;;;10.40;7.22;;;15.80;99.90;;;;;;4995658;28;20039;-60
2023/07/23 08:56:36;;;;;;;13.18;7.72;;;15.80;99.90;;;;;;5008533;28;20038;-61
2023/07/23 08:59:03;;;;;;;11.85;7.57;;;15.80;99.90;;;;;;4991059;28;20039;-60
2023/07/23 09:01:33;;;;;;;10.68;6.95;;;15.90;99.90;;;;;;5020190;28;20058;-60
2023/07/23 09:04:00;;;;;;;11.98;7.10;;;15.90;99.90;;;;;;4992344;28;20050;-60
2023/07/23 09:06:30;;;;;;;9.50;6.53;;;15.90;99.90;;;;;;4982583;28;20039;-59
2023/07/23 09:09:07;;;;;;;12.85;6.95;;;15.90;99.90;;;;;;4990930;28;20038;-63
2023/07/23 09:11:34;;;;;;;10.43;6.93;;;15.90;99.90;;;;;;4979204;28;20046;-60
2023/07/23 09:14:21;;;;;;;9.50;6.60;;;15.90;99.90;;;;;;4977472;28;20034;-59
2023/07/23 09:16:48;;;;;;;12.27;6.85;;;15.90;99.90;;;;;;4988971;28;20499;-60
2023/07/23 09:19:22;;;;;;;10.77;7.00;;;15.90;99.90;;;;;;4992583;28;20078;-62
2023/07/23 09:21:48;;;;;;;11.23;6.32;;;15.90;99.90;;;;;;4986693;28;20038;-60
2023/07/23 09:24:15;;;;;;;9.35;6.15;;;15.90;99.90;;;;;;4981796;28;20054;-61
2023/07/23 09:26:42;;;;;;;10.20;6.00;;;15.90;99.90;;;;;;5022737;28;20046;-60
2023/07/23 09:29:11;;;;;;;11.32;6.47;;;16.00;99.90;;;;;;4983219;28;20038;-60
2023/07/23 09:31:38;;;;;;;8.68;6.20;;;16.00;99.90;;;;;;5005594;28;20102;-60
2023/07/23 09:34:04;;;;;;;10.27;6.32;;;16.00;99.90;;;;;;5038255;28;20038;-60
2023/07/23 09:36:30;;;;;;;9.02;5.68;;;16.00;99.90;;;;;;4989491;28;20065;-60
2023/07/23 09:39:01;;;;;;;8.07;5.85;;;16.00;99.90;;;;;;4973462;28;20043;-60
2023/07/23 09:41:31;;;;;;;9.00;6.00;;;16.00;99.90;;;;;;5024798;28;20036;-60
2023/07/23 09:44:00;;;;;;;7.55;5.30;;;16.10;99.90;;;;;;5001967;28;20087;-60
2023/07/23 09:46:26;;;;;;;7.18;5.07;;;16.10;99.90;;;;;;5004398;28;20579;-61
2023/07/23 09:48:52;;;;;;;11.93;5.90;;;16.10;99.90;;;;;;4992109;28;20395;-60
2023/07/23 09:51:18;;;;;;;8.30;5.93;;;16.10;99.90;;;;;;4990682;28;20046;-60
2023/07/23 09:53:45;;;;;;;18.25;15.45;;;16.10;99.90;;;;;;4978555;28;20366;-58
2023/07/23 09:56:15;;;;;;;12.70;11.27;;;16.10;99.90;;;;;;4990714;28;20049;-61
2023/07/23 09:58:46;;;;;;;12.43;9.63;;;16.20;99.90;;;;;;5004380;28;20442;-59
2023/07/23 10:01:12;;;;;;;10.40;8.67;;;16.20;99.90;;;;;;4995791;28;20027;-60
2023/07/23 10:03:39;;;;;;;10.40;7.30;;;16.20;99.90;;;;;;5010124;28;20053;-59
2023/07/23 10:06:10;;;;;;;10.52;9.43;;;16.20;99.90;;;;;;4988759;28;20080;-62
2023/07/23 10:08:38;;;;;;;11.27;7.63;;;16.20;99.90;;;;;;5004751;28;20042;-61
2023/07/23 10:11:04;;;;;;;8.43;6.90;;;16.20;99.90;;;;;;5029062;28;20046;-61
2023/07/23 10:13:29;;;;;;;8.95;7.70;;;16.20;99.90;;;;;;5005394;28;20130;-59
2023/07/23 10:15:56;;;;;;;10.63;7.05;;;16.20;99.90;;;;;;4982024;28;20068;-59
2023/07/23 10:18:25;;;;;;;8.55;5.97;;;16.30;99.90;;;;;;4981325;28;20038;-63
2023/07/23 10:20:51;;;;;;;9.98;6.60;;;16.20;99.90;;;;;;4988050;28;20034;-59
2023/07/23 10:23:17;;;;;;;10.85;6.72;;;16.20;99.90;;;;;;4991884;28;20049;-59
2023/07/23 10:25:43;;;;;;;10.13;6.32;;;16.30;99.90;;;;;;5032486;22;20044;-82
2023/07/23 10:28:19;;;;;;;10.95;8.25;;;16.20;99.90;;;;;;5052828;28;20043;-80
2023/07/23 10:30:45;;;;;;;10.95;7.57;;;16.30;99.90;;;;;;5064494;28;20395;-80
2023/07/23 10:33:11;;;;;;;10.20;7.68;;;16.30;99.90;;;;;;5048457;28;20041;-80
2023/07/23 10:35:52;;;;;;;10.43;6.25;;;16.30;99.90;;;;;;5056939;28;20491;-79
2023/07/23 10:38:29;;;;;;;10.40;8.40;;;16.30;99.90;;;;;;5041564;28;20053;-80
2023/07/23 10:40:55;;;;;;;10.55;6.90;;;16.30;99.90;;;;;;5064529;28;20037;-80
2023/07/23 10:43:21;;;;;;;9.35;6.70;;;16.30;99.90;;;;;;5052810;28;20055;-80
2023/07/23 10:46:06;;;;;;;12.68;6.88;;;16.20;99.90;;;;;;5042835;28;20053;-80
2023/07/23 10:48:48;;;;;;;11.32;7.72;;;16.30;99.90;;;;;;5041600;28;20480;-80
2023/07/23 10:51:18;;;;;;;9.90;7.63;;;16.40;99.90;;;;;;5044658;28;20049;-80
2023/07/23 10:54:02;;;;;;;11.00;7.43;;;16.40;99.90;;;;;;5040966;28;20037;-80
2023/07/23 10:56:33;;;;;;;9.30;6.70;;;16.40;99.90;;;;;;5057149;28;20117;-79
2023/07/23 10:59:24;;;;;;;11.18;6.88;;;16.40;99.90;;;;;;5051503;28;20040;-79
2023/07/23 11:01:51;;;;;;;10.18;7.60;;;16.40;99.90;;;;;;5052077;28;20047;-80
2023/07/23 11:04:24;;;;;;;12.00;8.10;;;16.50;99.90;;;;;;5037767;28;20049;-79
2023/07/23 11:07:04;;;;;;;12.23;7.60;;;16.50;99.90;;;;;;5034839;28;20052;-79
2023/07/23 11:09:35;;;;;;;10.65;6.82;;;16.50;99.90;;;;;;5032665;28;20052;-79
2023/07/23 11:12:03;;;;;;;13.55;7.65;;;16.50;99.90;;;;;;5049532;28;20033;-79
2023/07/23 11:14:30;;;;;;;11.43;6.90;;;16.50;99.90;;;;;;5049897;28;20044;-79
2023/07/23 11:16:59;;;;;;;11.27;8.40;;;16.50;99.90;;;;;;5049791;28;20389;-79
2023/07/23 11:19:26;;;;;;;11.65;8.32;;;16.50;99.90;;;;;;5034398;28;20040;-79
2023/07/23 11:22:00;;;;;;;14.30;7.40;;;16.50;99.90;;;;;;5035509;28;20037;-79
2023/07/23 11:24:28;;;;;;;11.95;7.82;;;16.50;99.90;;;;;;5035755;28;20036;-79
2023/07/23 11:27:01;;;;;;;11.55;7.75;;;16.60;99.90;;;;;;5037967;28;20063;-79
2023/07/23 11:29:28;;;;;;;9.02;7.35;;;16.60;99.90;;;;;;5038661;28;20120;-79
2023/07/23 11:31:55;;;;;;;11.13;7.38;;;16.60;99.90;;;;;;5027296;28;20034;-79
2023/07/23 11:34:24;;;;;;;10.90;8.07;;;16.60;99.90;;;;;;5034550;28;20040;-79
2023/07/23 11:36:55;;;;;;;11.32;6.88;;;16.60;99.90;;;;;;5048628;28;20056;-78
2023/07/23 11:39:25;;;;;;;10.13;6.30;;;16.60;99.90;;;;;;5046320;28;20056;-79
2023/07/23 11:41:51;;;;;;;9.30;5.90;;;16.60;99.90;;;;;;5040300;28;20032;-79
2023/07/23 11:44:17;;;;;;;8.40;5.90;;;16.70;99.90;;;;;;5039178;28;20080;-79
2023/07/23 11:46:43;;;;;;;12.82;6.43;;;16.70;99.90;;;;;;5045468;28;20071;-79
2023/07/23 11:49:12;;;;;;;12.02;6.32;;;16.70;99.90;;;;;;5049883;28;20039;-79
2023/07/23 11:51:39;;;;;;;9.00;6.55;;;16.70;99.90;;;;;;5043259;28;20045;-79
2023/07/23 11:54:09;;;;;;;11.18;8.88;;;16.70;99.90;;;;;;5035497;28;20049;-79
2023/07/23 11:56:36;;;;;;;8.88;7.47;;;16.70;99.90;;;;;;5039709;28;20120;-79
2023/07/23 11:59:07;;;;;;;8.23;5.90;;;16.70;99.90;;;;;;5037945;28;20485;-79
2023/07/23 12:01:35;;;;;;;8.73;6.93;;;16.70;99.90;;;;;;5039680;28;20037;-79
2023/07/23 12:04:03;;;;;;;7.90;5.25;;;16.80;99.90;;;;;;5038112;28;20037;-79
2023/07/23 12:06:31;;;;;;;7.57;5.05;;;16.80;99.90;;;;;;5053705;28;20040;-79
2023/07/23 12:08:57;;;;;;;10.90;6.30;;;16.80;99.90;;;;;;5032879;28;20155;-79
2023/07/23 12:11:25;;;;;;;8.85;5.10;;;16.90;99.90;;;;;;5033168;28;20043;-79
2023/07/23 12:13:53;;;;;;;8.05;6.05;;;16.80;99.90;;;;;;5043568;28;20073;-79
2023/07/23 12:16:34;;;;;;;6.22;4.30;;;16.90;99.90;;;;;;5034750;28;20059;-79
2023/07/23 12:19:03;;;;;;;5.90;4.40;;;16.90;99.90;;;;;;5042655;28;20037;-78
2023/07/23 12:21:29;;;;;;;5.53;4.05;;;16.90;99.90;;;;;;5033983;28;20033;-78
2023/07/23 12:23:55;;;;;;;5.75;4.35;;;17.10;99.90;;;;;;5035873;28;20040;-78
2023/07/23 12:26:20;;;;;;;6.22;4.40;;;17.20;99.90;;;;;;5075466;28;20095;-78
2023/07/23 12:28:46;;;;;;;6.00;4.32;;;17.20;99.90;;;;;;5033320;28;20089;-78
2023/07/23 12:31:12;;;;;;;5.95;4.53;;;17.30;99.90;;;;;;5059803;28;20043;-78
2023/07/23 12:33:37;;;;;;;6.32;4.47;;;17.40;99.90;;;;;;5041384;28;20044;-78
2023/07/23 12:36:03;;;;;;;7.47;5.60;;;17.50;99.90;;;;;;5043118;28;20040;-78